sensor_id;sensor_type;location;lat;lon;timestamp;temperature;humidity
42841;DHT22;28491;46.898;7.660;2024-01-07T00:00:24;2.80;63.50
42841;DHT22;28491;46.898;7.660;2024-01-07T00:02:50;2.70;62.30
42841;DHT22;28491;46.898;7.660;2024-01-07T00:05:15;2.80;63.00
42841;DHT22;28491;46.898;7.660;2024-01-07T00:07:41;2.80;63.30
42841;DHT22;28491;46.898;7.660;2024-01-07T00:10:07;2.80;64.40
42841;DHT22;28491;46.898;7.660;2024-01-07T00:12:34;2.80;63.40
42841;DHT22;28491;46.898;7.660;2024-01-07T00:15:04;2.80;63.00
42841;DHT22;28491;46.898;7.660;2024-01-07T00:17:29;2.80;63.50
42841;DHT22;28491;46.898;7.660;2024-01-07T00:19:55;2.80;62.40
42841;DHT22;28491;46.898;7.660;2024-01-07T00:22:20;2.80;62.10
42841;DHT22;28491;46.898;7.660;2024-01-07T00:24:49;2.80;62.50
42841;DHT22;28491;46.898;7.660;2024-01-07T00:27:14;2.80;62.60
42841;DHT22;28491;46.898;7.660;2024-01-07T00:29:40;2.90;62.80
42841;DHT22;28491;46.898;7.660;2024-01-07T00:32:06;2.80;63.70
42841;DHT22;28491;46.898;7.660;2024-01-07T00:34:31;2.80;62.90
42841;DHT22;28491;46.898;7.660;2024-01-07T00:36:57;2.80;61.70
42841;DHT22;28491;46.898;7.660;2024-01-07T00:39:22;2.80;61.50
42841;DHT22;28491;46.898;7.660;2024-01-07T00:41:48;2.80;61.80
42841;DHT22;28491;46.898;7.660;2024-01-07T00:44:13;2.80;63.90
42841;DHT22;28491;46.898;7.660;2024-01-07T00:46:39;2.90;64.80
42841;DHT22;28491;46.898;7.660;2024-01-07T00:49:04;2.80;65.10
42841;DHT22;28491;46.898;7.660;2024-01-07T00:51:30;2.80;64.80
42841;DHT22;28491;46.898;7.660;2024-01-07T00:53:55;2.80;64.30
42841;DHT22;28491;46.898;7.660;2024-01-07T00:56:21;2.90;63.80
42841;DHT22;28491;46.898;7.660;2024-01-07T00:58:46;2.80;63.70
42841;DHT22;28491;46.898;7.660;2024-01-07T01:01:12;2.80;63.50
42841;DHT22;28491;46.898;7.660;2024-01-07T01:03:37;2.70;63.10
42841;DHT22;28491;46.898;7.660;2024-01-07T01:06:04;2.80;65.00
42841;DHT22;28491;46.898;7.660;2024-01-07T01:08:29;2.80;65.40
42841;DHT22;28491;46.898;7.660;2024-01-07T01:10:55;2.80;63.90
42841;DHT22;28491;46.898;7.660;2024-01-07T01:13:22;2.80;63.30
42841;DHT22;28491;46.898;7.660;2024-01-07T01:15:48;2.90;63.40
42841;DHT22;28491;46.898;7.660;2024-01-07T01:18:13;2.80;63.00
42841;DHT22;28491;46.898;7.660;2024-01-07T01:20:39;2.80;63.20
42841;DHT22;28491;46.898;7.660;2024-01-07T01:23:05;2.90;63.30
42841;DHT22;28491;46.898;7.660;2024-01-07T01:25:30;2.80;63.70
42841;DHT22;28491;46.898;7.660;2024-01-07T01:27:56;2.80;62.60
42841;DHT22;28491;46.898;7.660;2024-01-07T01:30:22;2.70;61.00
42841;DHT22;28491;46.898;7.660;2024-01-07T01:32:47;2.70;61.20
42841;DHT22;28491;46.898;7.660;2024-01-07T01:35:13;2.70;61.60
42841;DHT22;28491;46.898;7.660;2024-01-07T01:37:39;2.70;61.60
42841;DHT22;28491;46.898;7.660;2024-01-07T01:40:04;2.70;61.00
42841;DHT22;28491;46.898;7.660;2024-01-07T01:42:30;2.70;60.30
42841;DHT22;28491;46.898;7.660;2024-01-07T01:44:59;2.70;60.70
42841;DHT22;28491;46.898;7.660;2024-01-07T01:47:28;2.70;60.80
42841;DHT22;28491;46.898;7.660;2024-01-07T01:49:54;2.70;61.20
42841;DHT22;28491;46.898;7.660;2024-01-07T01:52:20;2.60;61.50
42841;DHT22;28491;46.898;7.660;2024-01-07T01:54:46;2.60;61.20
42841;DHT22;28491;46.898;7.660;2024-01-07T01:57:16;2.60;61.50
42841;DHT22;28491;46.898;7.660;2024-01-07T01:59:45;2.80;61.50
42841;DHT22;28491;46.898;7.660;2024-01-07T02:02:10;2.60;62.30
42841;DHT22;28491;46.898;7.660;2024-01-07T02:04:36;2.60;63.80
42841;DHT22;28491;46.898;7.660;2024-01-07T02:07:02;2.60;64.60
42841;DHT22;28491;46.898;7.660;2024-01-07T02:09:27;2.60;66.00
42841;DHT22;28491;46.898;7.660;2024-01-07T02:12:03;2.60;65.00
42841;DHT22;28491;46.898;7.660;2024-01-07T02:14:29;2.60;65.10
42841;DHT22;28491;46.898;7.660;2024-01-07T02:16:55;2.60;66.40
42841;DHT22;28491;46.898;7.660;2024-01-07T02:19:21;2.60;66.20
42841;DHT22;28491;46.898;7.660;2024-01-07T02:21:47;2.60;66.50
42841;DHT22;28491;46.898;7.660;2024-01-07T02:24:16;2.60;66.50
42841;DHT22;28491;46.898;7.660;2024-01-07T02:26:42;2.60;66.90
42841;DHT22;28491;46.898;7.660;2024-01-07T02:29:08;2.50;67.30
42841;DHT22;28491;46.898;7.660;2024-01-07T02:31:33;2.60;67.10
42841;DHT22;28491;46.898;7.660;2024-01-07T02:33:59;2.60;66.00
42841;DHT22;28491;46.898;7.660;2024-01-07T02:36:24;2.60;64.90
42841;DHT22;28491;46.898;7.660;2024-01-07T02:38:50;2.60;64.90
42841;DHT22;28491;46.898;7.660;2024-01-07T02:41:15;2.60;64.60
42841;DHT22;28491;46.898;7.660;2024-01-07T02:43:41;2.60;64.30
42841;DHT22;28491;46.898;7.660;2024-01-07T02:46:07;2.50;65.40
42841;DHT22;28491;46.898;7.660;2024-01-07T02:48:33;2.50;64.70
42841;DHT22;28491;46.898;7.660;2024-01-07T02:50:58;2.60;63.90
42841;DHT22;28491;46.898;7.660;2024-01-07T02:53:24;2.50;63.40
42841;DHT22;28491;46.898;7.660;2024-01-07T02:55:49;2.60;63.70
42841;DHT22;28491;46.898;7.660;2024-01-07T02:58:15;2.60;63.30
42841;DHT22;28491;46.898;7.660;2024-01-07T03:00:41;2.60;62.80
42841;DHT22;28491;46.898;7.660;2024-01-07T03:03:06;2.60;62.70
42841;DHT22;28491;46.898;7.660;2024-01-07T03:05:34;2.60;62.70
42841;DHT22;28491;46.898;7.660;2024-01-07T03:08:00;2.60;63.10
42841;DHT22;28491;46.898;7.660;2024-01-07T03:10:26;2.50;63.20
42841;DHT22;28491;46.898;7.660;2024-01-07T03:12:52;2.60;63.50
42841;DHT22;28491;46.898;7.660;2024-01-07T03:15:17;2.60;63.40
42841;DHT22;28491;46.898;7.660;2024-01-07T03:17:44;2.60;62.90
42841;DHT22;28491;46.898;7.660;2024-01-07T03:20:10;2.60;62.20
42841;DHT22;28491;46.898;7.660;2024-01-07T03:22:35;2.60;62.40
42841;DHT22;28491;46.898;7.660;2024-01-07T03:25:01;2.60;62.70
42841;DHT22;28491;46.898;7.660;2024-01-07T03:27:27;2.60;61.70
42841;DHT22;28491;46.898;7.660;2024-01-07T03:29:52;2.60;62.00
42841;DHT22;28491;46.898;7.660;2024-01-07T03:32:18;2.60;62.40
42841;DHT22;28491;46.898;7.660;2024-01-07T03:34:43;2.60;62.60
42841;DHT22;28491;46.898;7.660;2024-01-07T03:37:09;2.60;63.00
42841;DHT22;28491;46.898;7.660;2024-01-07T03:39:34;2.60;62.50
42841;DHT22;28491;46.898;7.660;2024-01-07T03:42:00;2.60;62.40
42841;DHT22;28491;46.898;7.660;2024-01-07T03:44:26;2.60;62.10
42841;DHT22;28491;46.898;7.660;2024-01-07T03:46:51;2.60;61.80
42841;DHT22;28491;46.898;7.660;2024-01-07T03:49:17;2.60;62.00
42841;DHT22;28491;46.898;7.660;2024-01-07T03:51:45;2.50;62.00
42841;DHT22;28491;46.898;7.660;2024-01-07T03:54:11;2.50;62.40
42841;DHT22;28491;46.898;7.660;2024-01-07T03:56:36;2.50;62.40
42841;DHT22;28491;46.898;7.660;2024-01-07T03:59:02;2.60;62.70
42841;DHT22;28491;46.898;7.660;2024-01-07T04:01:27;2.60;63.20
42841;DHT22;28491;46.898;7.660;2024-01-07T04:03:53;2.50;62.70
42841;DHT22;28491;46.898;7.660;2024-01-07T04:06:18;2.50;63.00
42841;DHT22;28491;46.898;7.660;2024-01-07T04:08:44;2.50;63.90
42841;DHT22;28491;46.898;7.660;2024-01-07T04:11:09;2.50;63.80
42841;DHT22;28491;46.898;7.660;2024-01-07T04:13:35;2.50;63.60
42841;DHT22;28491;46.898;7.660;2024-01-07T04:16:03;2.50;63.80
42841;DHT22;28491;46.898;7.660;2024-01-07T04:18:29;2.50;64.20
42841;DHT22;28491;46.898;7.660;2024-01-07T04:20:54;2.50;63.80
42841;DHT22;28491;46.898;7.660;2024-01-07T04:23:20;2.50;64.30
42841;DHT22;28491;46.898;7.660;2024-01-07T04:25:45;2.50;63.80
42841;DHT22;28491;46.898;7.660;2024-01-07T04:28:11;2.50;63.40
42841;DHT22;28491;46.898;7.660;2024-01-07T04:30:36;2.50;63.90
42841;DHT22;28491;46.898;7.660;2024-01-07T04:33:03;2.50;63.90
42841;DHT22;28491;46.898;7.660;2024-01-07T04:35:29;2.50;63.00
42841;DHT22;28491;46.898;7.660;2024-01-07T04:37:54;2.40;63.80
42841;DHT22;28491;46.898;7.660;2024-01-07T04:40:20;2.50;64.10
42841;DHT22;28491;46.898;7.660;2024-01-07T04:42:45;2.50;64.70
42841;DHT22;28491;46.898;7.660;2024-01-07T04:45:11;2.40;65.10
42841;DHT22;28491;46.898;7.660;2024-01-07T04:47:36;2.40;65.30
42841;DHT22;28491;46.898;7.660;2024-01-07T04:50:03;2.40;65.40
42841;DHT22;28491;46.898;7.660;2024-01-07T04:52:29;2.40;65.50
42841;DHT22;28491;46.898;7.660;2024-01-07T04:54:55;2.40;65.70
42841;DHT22;28491;46.898;7.660;2024-01-07T04:57:21;2.40;66.40
42841;DHT22;28491;46.898;7.660;2024-01-07T04:59:48;2.40;66.10
42841;DHT22;28491;46.898;7.660;2024-01-07T05:02:13;2.40;65.30
42841;DHT22;28491;46.898;7.660;2024-01-07T05:04:39;2.40;65.80
42841;DHT22;28491;46.898;7.660;2024-01-07T05:07:05;2.40;66.40
42841;DHT22;28491;46.898;7.660;2024-01-07T05:09:31;2.40;66.50
42841;DHT22;28491;46.898;7.660;2024-01-07T05:11:57;2.40;67.20
42841;DHT22;28491;46.898;7.660;2024-01-07T05:14:23;2.40;66.90
42841;DHT22;28491;46.898;7.660;2024-01-07T05:16:48;2.40;67.10
42841;DHT22;28491;46.898;7.660;2024-01-07T05:19:14;2.40;67.70
42841;DHT22;28491;46.898;7.660;2024-01-07T05:21:39;2.40;67.70
42841;DHT22;28491;46.898;7.660;2024-01-07T05:24:05;2.40;67.60
42841;DHT22;28491;46.898;7.660;2024-01-07T05:26:37;2.40;67.90
42841;DHT22;28491;46.898;7.660;2024-01-07T05:29:03;2.40;68.00
42841;DHT22;28491;46.898;7.660;2024-01-07T05:31:28;2.40;68.00
42841;DHT22;28491;46.898;7.660;2024-01-07T05:33:54;2.40;68.00
42841;DHT22;28491;46.898;7.660;2024-01-07T05:36:19;2.40;68.00
42841;DHT22;28491;46.898;7.660;2024-01-07T05:38:45;2.40;67.70
42841;DHT22;28491;46.898;7.660;2024-01-07T05:41:10;2.40;68.10
42841;DHT22;28491;46.898;7.660;2024-01-07T05:43:36;2.40;67.70
42841;DHT22;28491;46.898;7.660;2024-01-07T05:46:02;2.30;67.40
42841;DHT22;28491;46.898;7.660;2024-01-07T05:48:28;2.30;67.20
42841;DHT22;28491;46.898;7.660;2024-01-07T05:50:54;2.30;67.10
42841;DHT22;28491;46.898;7.660;2024-01-07T05:53:19;2.40;66.80
42841;DHT22;28491;46.898;7.660;2024-01-07T05:55:45;2.30;67.10
42841;DHT22;28491;46.898;7.660;2024-01-07T05:58:11;2.30;68.20
42841;DHT22;28491;46.898;7.660;2024-01-07T06:00:37;2.30;68.00
42841;DHT22;28491;46.898;7.660;2024-01-07T06:03:03;2.40;68.00
42841;DHT22;28491;46.898;7.660;2024-01-07T06:05:29;2.30;67.00
42841;DHT22;28491;46.898;7.660;2024-01-07T06:07:55;2.30;67.00
42841;DHT22;28491;46.898;7.660;2024-01-07T06:10:20;2.30;67.40
42841;DHT22;28491;46.898;7.660;2024-01-07T06:12:46;2.30;67.20
42841;DHT22;28491;46.898;7.660;2024-01-07T06:15:12;2.30;66.20
42841;DHT22;28491;46.898;7.660;2024-01-07T06:17:37;2.30;65.90
42841;DHT22;28491;46.898;7.660;2024-01-07T06:20:03;2.30;66.40
42841;DHT22;28491;46.898;7.660;2024-01-07T06:22:29;2.30;66.30
42841;DHT22;28491;46.898;7.660;2024-01-07T06:24:54;2.40;66.00
42841;DHT22;28491;46.898;7.660;2024-01-07T06:27:20;2.40;66.10
42841;DHT22;28491;46.898;7.660;2024-01-07T06:29:45;2.40;65.70
42841;DHT22;28491;46.898;7.660;2024-01-07T06:32:13;2.40;65.30
42841;DHT22;28491;46.898;7.660;2024-01-07T06:34:39;2.40;64.90
42841;DHT22;28491;46.898;7.660;2024-01-07T06:37:04;2.40;64.90
42841;DHT22;28491;46.898;7.660;2024-01-07T06:39:30;2.40;65.00
42841;DHT22;28491;46.898;7.660;2024-01-07T06:41:57;2.40;65.40
42841;DHT22;28491;46.898;7.660;2024-01-07T06:44:22;2.40;65.40
42841;DHT22;28491;46.898;7.660;2024-01-07T06:46:48;2.40;65.60
42841;DHT22;28491;46.898;7.660;2024-01-07T06:49:13;2.30;64.70
42841;DHT22;28491;46.898;7.660;2024-01-07T06:51:39;2.30;64.80
42841;DHT22;28491;46.898;7.660;2024-01-07T06:54:05;2.30;64.90
42841;DHT22;28491;46.898;7.660;2024-01-07T06:56:30;2.30;64.90
42841;DHT22;28491;46.898;7.660;2024-01-07T06:58:56;2.30;65.10
42841;DHT22;28491;46.898;7.660;2024-01-07T07:01:22;2.40;65.20
42841;DHT22;28491;46.898;7.660;2024-01-07T07:03:49;2.30;64.60
42841;DHT22;28491;46.898;7.660;2024-01-07T07:06:15;2.40;64.60
42841;DHT22;28491;46.898;7.660;2024-01-07T07:08:40;2.40;64.90
42841;DHT22;28491;46.898;7.660;2024-01-07T07:11:06;2.40;64.70
42841;DHT22;28491;46.898;7.660;2024-01-07T07:13:31;2.40;64.60
42841;DHT22;28491;46.898;7.660;2024-01-07T07:15:57;2.40;63.90
42841;DHT22;28491;46.898;7.660;2024-01-07T07:18:23;2.40;64.10
42841;DHT22;28491;46.898;7.660;2024-01-07T07:20:49;2.40;63.90
42841;DHT22;28491;46.898;7.660;2024-01-07T07:23:15;2.40;64.00
42841;DHT22;28491;46.898;7.660;2024-01-07T07:25:40;2.40;64.60
42841;DHT22;28491;46.898;7.660;2024-01-07T07:28:06;2.40;63.80
42841;DHT22;28491;46.898;7.660;2024-01-07T07:30:31;2.40;63.50
42841;DHT22;28491;46.898;7.660;2024-01-07T07:32:57;2.40;63.00
42841;DHT22;28491;46.898;7.660;2024-01-07T07:35:22;2.40;62.00
42841;DHT22;28491;46.898;7.660;2024-01-07T07:37:48;2.40;62.80
42841;DHT22;28491;46.898;7.660;2024-01-07T07:40:13;2.40;63.10
42841;DHT22;28491;46.898;7.660;2024-01-07T07:42:39;2.40;63.50
42841;DHT22;28491;46.898;7.660;2024-01-07T07:45:05;2.40;63.80
42841;DHT22;28491;46.898;7.660;2024-01-07T07:47:31;2.40;63.70
42841;DHT22;28491;46.898;7.660;2024-01-07T07:49:56;2.40;64.10
42841;DHT22;28491;46.898;7.660;2024-01-07T07:52:22;2.40;63.60
42841;DHT22;28491;46.898;7.660;2024-01-07T07:54:54;2.40;61.80
42841;DHT22;28491;46.898;7.660;2024-01-07T07:57:20;2.40;61.70
42841;DHT22;28491;46.898;7.660;2024-01-07T07:59:50;2.40;62.40
42841;DHT22;28491;46.898;7.660;2024-01-07T08:02:16;2.40;63.20
42841;DHT22;28491;46.898;7.660;2024-01-07T08:04:41;2.50;63.30
42841;DHT22;28491;46.898;7.660;2024-01-07T08:07:09;2.50;63.30
42841;DHT22;28491;46.898;7.660;2024-01-07T08:09:35;2.50;63.70
42841;DHT22;28491;46.898;7.660;2024-01-07T08:12:04;2.50;63.80
42841;DHT22;28491;46.898;7.660;2024-01-07T08:14:30;2.50;63.10
42841;DHT22;28491;46.898;7.660;2024-01-07T08:16:56;2.50;62.80
42841;DHT22;28491;46.898;7.660;2024-01-07T08:19:22;2.50;62.90
42841;DHT22;28491;46.898;7.660;2024-01-07T08:21:47;2.50;63.00
42841;DHT22;28491;46.898;7.660;2024-01-07T08:24:13;2.50;63.40
42841;DHT22;28491;46.898;7.660;2024-01-07T08:26:38;2.50;63.00
42841;DHT22;28491;46.898;7.660;2024-01-07T08:29:04;2.50;62.70
42841;DHT22;28491;46.898;7.660;2024-01-07T08:31:30;2.60;63.20
42841;DHT22;28491;46.898;7.660;2024-01-07T08:33:56;2.60;63.00
42841;DHT22;28491;46.898;7.660;2024-01-07T08:36:22;2.50;62.90
42841;DHT22;28491;46.898;7.660;2024-01-07T08:38:48;2.50;63.00
42841;DHT22;28491;46.898;7.660;2024-01-07T08:41:15;2.60;63.30
42841;DHT22;28491;46.898;7.660;2024-01-07T08:43:41;2.60;63.10
42841;DHT22;28491;46.898;7.660;2024-01-07T08:46:07;2.60;63.00
42841;DHT22;28491;46.898;7.660;2024-01-07T08:48:32;2.60;62.90
42841;DHT22;28491;46.898;7.660;2024-01-07T08:50:58;2.60;62.60
42841;DHT22;28491;46.898;7.660;2024-01-07T08:53:24;2.60;62.80
42841;DHT22;28491;46.898;7.660;2024-01-07T08:55:49;2.60;61.80
42841;DHT22;28491;46.898;7.660;2024-01-07T08:58:15;2.60;62.00
42841;DHT22;28491;46.898;7.660;2024-01-07T09:00:42;2.70;62.60
42841;DHT22;28491;46.898;7.660;2024-01-07T09:03:08;2.70;62.50
42841;DHT22;28491;46.898;7.660;2024-01-07T09:05:33;2.70;62.80
42841;DHT22;28491;46.898;7.660;2024-01-07T09:07:59;2.70;62.00
42841;DHT22;28491;46.898;7.660;2024-01-07T09:10:26;2.70;61.40
42841;DHT22;28491;46.898;7.660;2024-01-07T09:12:52;2.70;61.90
42841;DHT22;28491;46.898;7.660;2024-01-07T09:15:19;2.70;61.70
42841;DHT22;28491;46.898;7.660;2024-01-07T09:17:46;2.80;62.50
42841;DHT22;28491;46.898;7.660;2024-01-07T09:20:12;2.70;61.90
42841;DHT22;28491;46.898;7.660;2024-01-07T09:22:38;2.80;61.00
42841;DHT22;28491;46.898;7.660;2024-01-07T09:25:04;2.80;60.90
42841;DHT22;28491;46.898;7.660;2024-01-07T09:27:30;2.80;61.70
42841;DHT22;28491;46.898;7.660;2024-01-07T09:29:56;2.90;61.30
42841;DHT22;28491;46.898;7.660;2024-01-07T09:32:22;2.90;62.10
42841;DHT22;28491;46.898;7.660;2024-01-07T09:34:47;2.90;61.70
42841;DHT22;28491;46.898;7.660;2024-01-07T10:05:05;3.40;54.60
42841;DHT22;28491;46.898;7.660;2024-01-07T10:07:36;3.40;54.60
42841;DHT22;28491;46.898;7.660;2024-01-07T10:28:11;3.30;13.00
42841;DHT22;28491;46.898;7.660;2024-01-07T10:30:40;3.30;23.50
42841;DHT22;28491;46.898;7.660;2024-01-07T10:33:07;3.30;29.10
42841;DHT22;28491;46.898;7.660;2024-01-07T10:35:34;3.30;39.20
42841;DHT22;28491;46.898;7.660;2024-01-07T10:38:00;3.40;36.80
42841;DHT22;28491;46.898;7.660;2024-01-07T10:40:27;3.50;32.30
42841;DHT22;28491;46.898;7.660;2024-01-07T10:42:54;3.50;25.50
42841;DHT22;28491;46.898;7.660;2024-01-07T10:45:21;3.50;18.40
42841;DHT22;28491;46.898;7.660;2024-01-07T10:47:49;3.50;19.20
42841;DHT22;28491;46.898;7.660;2024-01-07T10:50:16;3.60;13.50
42841;DHT22;28491;46.898;7.660;2024-01-07T10:52:43;3.60;16.60
42841;DHT22;28491;46.898;7.660;2024-01-07T10:55:11;3.60;11.90
42841;DHT22;28491;46.898;7.660;2024-01-07T11:00:06;3.70;1.10
42841;DHT22;28491;46.898;7.660;2024-01-07T11:02:40;3.60;1.00
42841;DHT22;28491;46.898;7.660;2024-01-07T11:05:23;3.60;1.00
42841;DHT22;28491;46.898;7.660;2024-01-07T11:08:15;3.60;1.00
42841;DHT22;28491;46.898;7.660;2024-01-07T11:10:48;3.60;1.00
42841;DHT22;28491;46.898;7.660;2024-01-07T11:13:37;3.60;1.00
42841;DHT22;28491;46.898;7.660;2024-01-07T11:16:03;3.60;1.00
42841;DHT22;28491;46.898;7.660;2024-01-07T11:18:31;3.60;1.00
42841;DHT22;28491;46.898;7.660;2024-01-07T11:21:02;3.60;1.00
42841;DHT22;28491;46.898;7.660;2024-01-07T11:23:44;3.60;1.00
42841;DHT22;28491;46.898;7.660;2024-01-07T11:26:15;3.70;1.00
42841;DHT22;28491;46.898;7.660;2024-01-07T11:28:50;3.60;1.00
42841;DHT22;28491;46.898;7.660;2024-01-07T11:31:17;3.70;1.00
42841;DHT22;28491;46.898;7.660;2024-01-07T11:33:47;3.70;1.00
42841;DHT22;28491;46.898;7.660;2024-01-07T11:36:14;3.60;1.00
42841;DHT22;28491;46.898;7.660;2024-01-07T11:38:44;3.70;1.00
42841;DHT22;28491;46.898;7.660;2024-01-07T11:41:14;3.60;1.00
42841;DHT22;28491;46.898;7.660;2024-01-07T11:43:57;3.70;1.00
42841;DHT22;28491;46.898;7.660;2024-01-07T11:46:25;3.70;1.00
42841;DHT22;28491;46.898;7.660;2024-01-07T11:48:55;3.70;1.00
42841;DHT22;28491;46.898;7.660;2024-01-07T11:51:28;3.60;1.00
42841;DHT22;28491;46.898;7.660;2024-01-07T11:53:55;3.60;1.00
42841;DHT22;28491;46.898;7.660;2024-01-07T11:56:21;3.60;1.00
42841;DHT22;28491;46.898;7.660;2024-01-07T11:58:46;3.70;1.00
42841;DHT22;28491;46.898;7.660;2024-01-07T12:01:15;3.50;1.00
42841;DHT22;28491;46.898;7.660;2024-01-07T12:03:43;3.50;1.00
42841;DHT22;28491;46.898;7.660;2024-01-07T12:06:09;3.60;1.00
42841;DHT22;28491;46.898;7.660;2024-01-07T12:08:47;3.50;1.00
42841;DHT22;28491;46.898;7.660;2024-01-07T12:11:14;3.50;1.00
42841;DHT22;28491;46.898;7.660;2024-01-07T12:13:40;3.50;1.00
42841;DHT22;28491;46.898;7.660;2024-01-07T12:16:07;3.60;1.00
42841;DHT22;28491;46.898;7.660;2024-01-07T12:18:35;3.70;1.00
42841;DHT22;28491;46.898;7.660;2024-01-07T12:21:01;3.70;1.00
42841;DHT22;28491;46.898;7.660;2024-01-07T12:23:27;3.70;1.00
42841;DHT22;28491;46.898;7.660;2024-01-07T12:25:53;3.70;1.00
42841;DHT22;28491;46.898;7.660;2024-01-07T12:28:19;3.70;1.00
42841;DHT22;28491;46.898;7.660;2024-01-07T12:30:45;3.70;1.00
42841;DHT22;28491;46.898;7.660;2024-01-07T12:33:19;3.80;1.00
42841;DHT22;28491;46.898;7.660;2024-01-07T12:35:48;3.80;1.00
42841;DHT22;28491;46.898;7.660;2024-01-07T12:38:13;3.80;1.00
42841;DHT22;28491;46.898;7.660;2024-01-07T12:40:39;3.80;1.00
42841;DHT22;28491;46.898;7.660;2024-01-07T12:43:05;3.80;1.00
42841;DHT22;28491;46.898;7.660;2024-01-07T12:45:32;3.80;1.00
42841;DHT22;28491;46.898;7.660;2024-01-07T12:48:01;3.90;1.00
42841;DHT22;28491;46.898;7.660;2024-01-07T12:50:28;3.90;1.00
42841;DHT22;28491;46.898;7.660;2024-01-07T12:52:55;3.90;1.00
42841;DHT22;28491;46.898;7.660;2024-01-07T12:55:22;3.80;1.00
42841;DHT22;28491;46.898;7.660;2024-01-07T12:57:47;3.90;1.00
42841;DHT22;28491;46.898;7.660;2024-01-07T13:00:13;3.80;1.00
42841;DHT22;28491;46.898;7.660;2024-01-07T13:02:39;3.90;1.00
42841;DHT22;28491;46.898;7.660;2024-01-07T13:05:05;3.90;1.00
42841;DHT22;28491;46.898;7.660;2024-01-07T13:07:32;3.90;1.00
42841;DHT22;28491;46.898;7.660;2024-01-07T13:09:57;3.90;1.00
42841;DHT22;28491;46.898;7.660;2024-01-07T13:12:23;3.90;1.00
42841;DHT22;28491;46.898;7.660;2024-01-07T13:14:49;3.90;1.00
42841;DHT22;28491;46.898;7.660;2024-01-07T13:17:15;3.90;1.00
42841;DHT22;28491;46.898;7.660;2024-01-07T13:19:40;3.90;1.00
42841;DHT22;28491;46.898;7.660;2024-01-07T13:22:07;3.90;1.00
42841;DHT22;28491;46.898;7.660;2024-01-07T13:24:32;3.90;1.00
42841;DHT22;28491;46.898;7.660;2024-01-07T13:26:58;3.90;1.00
42841;DHT22;28491;46.898;7.660;2024-01-07T13:29:24;3.90;1.00
42841;DHT22;28491;46.898;7.660;2024-01-07T13:31:50;3.90;1.00
42841;DHT22;28491;46.898;7.660;2024-01-07T13:34:16;3.90;1.00
42841;DHT22;28491;46.898;7.660;2024-01-07T13:36:43;3.90;1.00
42841;DHT22;28491;46.898;7.660;2024-01-07T13:39:09;3.80;1.00
42841;DHT22;28491;46.898;7.660;2024-01-07T13:41:35;3.80;1.00
42841;DHT22;28491;46.898;7.660;2024-01-07T13:44:01;3.80;1.00
42841;DHT22;28491;46.898;7.660;2024-01-07T13:46:28;3.80;1.00
42841;DHT22;28491;46.898;7.660;2024-01-07T13:48:54;3.80;1.00
42841;DHT22;28491;46.898;7.660;2024-01-07T13:51:19;3.80;1.00
42841;DHT22;28491;46.898;7.660;2024-01-07T13:53:45;3.70;1.00
42841;DHT22;28491;46.898;7.660;2024-01-07T13:56:13;3.70;1.00
42841;DHT22;28491;46.898;7.660;2024-01-07T13:58:39;3.70;1.00
42841;DHT22;28491;46.898;7.660;2024-01-07T14:01:04;3.70;1.00
42841;DHT22;28491;46.898;7.660;2024-01-07T14:03:33;3.70;1.00
42841;DHT22;28491;46.898;7.660;2024-01-07T14:05:59;3.70;1.00
42841;DHT22;28491;46.898;7.660;2024-01-07T14:08:26;3.70;1.00
42841;DHT22;28491;46.898;7.660;2024-01-07T14:10:51;3.70;1.00
42841;DHT22;28491;46.898;7.660;2024-01-07T14:13:17;3.60;1.00
42841;DHT22;28491;46.898;7.660;2024-01-07T14:15:42;3.60;1.00
42841;DHT22;28491;46.898;7.660;2024-01-07T14:18:09;3.40;1.00
42841;DHT22;28491;46.898;7.660;2024-01-07T14:20:35;3.60;1.00
42841;DHT22;28491;46.898;7.660;2024-01-07T14:23:01;3.60;1.00
42841;DHT22;28491;46.898;7.660;2024-01-07T14:25:26;3.60;1.00
42841;DHT22;28491;46.898;7.660;2024-01-07T14:27:52;3.60;1.00
42841;DHT22;28491;46.898;7.660;2024-01-07T14:30:17;3.50;1.00
42841;DHT22;28491;46.898;7.660;2024-01-07T14:32:43;3.50;1.00
42841;DHT22;28491;46.898;7.660;2024-01-07T14:35:11;3.50;1.00
42841;DHT22;28491;46.898;7.660;2024-01-07T14:37:37;3.50;1.00
42841;DHT22;28491;46.898;7.660;2024-01-07T14:40:05;3.60;1.00
42841;DHT22;28491;46.898;7.660;2024-01-07T14:42:31;3.60;1.00
42841;DHT22;28491;46.898;7.660;2024-01-07T14:44:56;3.50;1.00
42841;DHT22;28491;46.898;7.660;2024-01-07T14:47:28;3.60;1.00
42841;DHT22;28491;46.898;7.660;2024-01-07T14:49:56;3.50;1.00
42841;DHT22;28491;46.898;7.660;2024-01-07T14:52:29;3.50;1.00
42841;DHT22;28491;46.898;7.660;2024-01-07T14:54:57;3.50;1.00
42841;DHT22;28491;46.898;7.660;2024-01-07T14:57:36;3.40;1.00
42841;DHT22;28491;46.898;7.660;2024-01-07T15:00:12;3.50;1.00
42841;DHT22;28491;46.898;7.660;2024-01-07T15:06:29;3.40;1.00
42841;DHT22;28491;46.898;7.660;2024-01-07T15:09:56;3.40;1.00
42841;DHT22;28491;46.898;7.660;2024-01-07T15:23:13;3.30;1.00
42841;DHT22;28491;46.898;7.660;2024-01-07T15:26:10;3.30;1.00
42841;DHT22;28491;46.898;7.660;2024-01-07T16:11:28;2.80;1.00
42841;DHT22;28491;46.898;7.660;2024-01-07T16:17:36;2.70;1.00
42841;DHT22;28491;46.898;7.660;2024-01-07T17:10:11;2.60;1.00
42841;DHT22;28491;46.898;7.660;2024-01-07T17:29:40;2.50;1.00
42841;DHT22;28491;46.898;7.660;2024-01-07T19:03:45;2.10;95.40
42841;DHT22;28491;46.898;7.660;2024-01-07T19:06:59;2.10;92.50
42841;DHT22;28491;46.898;7.660;2024-01-07T19:20:14;2.10;94.60
42841;DHT22;28491;46.898;7.660;2024-01-07T19:23:06;2.00;95.50
42841;DHT22;28491;46.898;7.660;2024-01-07T20:35:57;2.00;78.70
42841;DHT22;28491;46.898;7.660;2024-01-07T21:16:25;1.80;60.40
42841;DHT22;28491;46.898;7.660;2024-01-07T21:18:50;1.80;15.60
42841;DHT22;28491;46.898;7.660;2024-01-07T21:21:16;1.80;29.80
42841;DHT22;28491;46.898;7.660;2024-01-07T21:23:41;1.80;61.80
42841;DHT22;28491;46.898;7.660;2024-01-07T21:26:07;1.70;18.00
42841;DHT22;28491;46.898;7.660;2024-01-07T21:28:33;1.70;62.10
42841;DHT22;28491;46.898;7.660;2024-01-07T21:30:59;1.70;1.00
42841;DHT22;28491;46.898;7.660;2024-01-07T21:33:28;1.70;1.00
42841;DHT22;28491;46.898;7.660;2024-01-07T21:35:54;1.70;1.00
42841;DHT22;28491;46.898;7.660;2024-01-07T21:38:24;1.60;47.90
42841;DHT22;28491;46.898;7.660;2024-01-07T21:40:50;1.70;5.30
42841;DHT22;28491;46.898;7.660;2024-01-07T21:43:19;1.70;64.00
42841;DHT22;28491;46.898;7.660;2024-01-07T21:45:44;1.70;63.50
42841;DHT22;28491;46.898;7.660;2024-01-07T21:48:10;1.60;62.00
42841;DHT22;28491;46.898;7.660;2024-01-07T21:50:35;1.60;14.80
42841;DHT22;28491;46.898;7.660;2024-01-07T21:53:01;1.60;70.30
42841;DHT22;28491;46.898;7.660;2024-01-07T21:55:26;1.60;44.20
42841;DHT22;28491;46.898;7.660;2024-01-07T21:57:52;1.60;43.40
42841;DHT22;28491;46.898;7.660;2024-01-07T22:00:20;1.60;1.00
42841;DHT22;28491;46.898;7.660;2024-01-07T22:02:45;1.60;1.00
42841;DHT22;28491;46.898;7.660;2024-01-07T22:05:12;1.60;1.00
42841;DHT22;28491;46.898;7.660;2024-01-07T22:07:38;1.60;1.00
42841;DHT22;28491;46.898;7.660;2024-01-07T22:10:04;1.60;1.00
42841;DHT22;28491;46.898;7.660;2024-01-07T22:12:30;1.60;1.00
42841;DHT22;28491;46.898;7.660;2024-01-07T22:14:57;1.60;99.90